createdAt,value
2022-08-25T00:00:23.555Z,19.05
2022-08-25T00:03:08.646Z,19.02
2022-08-25T00:05:38.605Z,18.96
2022-08-25T00:08:08.729Z,18.89
2022-08-25T00:10:39.377Z,18.86
2022-08-25T00:13:12.178Z,18.83
2022-08-25T00:15:44.711Z,18.80
2022-08-25T00:18:19.902Z,18.77
2022-08-25T00:20:50.752Z,18.74
2022-08-25T00:23:20.973Z,18.74
2022-08-25T00:25:51.243Z,18.76
2022-08-25T00:28:20.903Z,18.76
2022-08-25T00:30:50.250Z,18.75
2022-08-25T00:33:19.800Z,18.73
2022-08-25T00:35:48.945Z,18.74
2022-08-25T00:38:17.931Z,18.75
2022-08-25T00:41:06.095Z,18.74
2022-08-25T00:43:42.884Z,18.74
2022-08-25T00:46:14.856Z,18.75
2022-08-25T00:48:51.431Z,18.78
2022-08-25T00:51:33.880Z,18.80
2022-08-25T00:54:04.089Z,18.81
2022-08-25T00:56:35.284Z,18.82
2022-08-25T00:59:05.498Z,18.80
2022-08-25T01:01:34.929Z,18.77
2022-08-25T01:04:04.455Z,18.74
2022-08-25T01:06:39.616Z,18.66
2022-08-25T01:09:09.022Z,18.59
2022-08-25T01:11:38.538Z,18.49
2022-08-25T01:14:07.739Z,18.36
2022-08-25T01:16:39.186Z,18.28
2022-08-25T01:19:09.812Z,18.25
2022-08-25T01:21:51.271Z,18.21
2022-08-25T01:24:45.695Z,18.19
2022-08-25T01:27:14.776Z,18.17
2022-08-25T01:29:43.893Z,18.14
2022-08-25T01:32:15.853Z,18.12
2022-08-25T01:34:46.518Z,18.09
2022-08-25T01:37:17.476Z,18.04
2022-08-25T01:39:47.164Z,18.01
2022-08-25T01:42:25.463Z,17.93
2022-08-25T01:44:54.844Z,17.85
2022-08-25T01:47:24.790Z,17.84
2022-08-25T01:49:53.413Z,17.81
2022-08-25T01:52:32.513Z,17.79
2022-08-25T01:55:02.968Z,17.76
2022-08-25T01:57:34.286Z,17.73
2022-08-25T02:00:06.910Z,17.71
2022-08-25T02:02:57.814Z,17.68
2022-08-25T02:05:28.379Z,17.68
2022-08-25T02:08:02.559Z,17.66
2022-08-25T02:10:34.018Z,17.67
2022-08-25T02:13:03.178Z,17.67
2022-08-25T02:15:44.008Z,17.66
2022-08-25T02:18:13.693Z,17.59
2022-08-25T02:20:42.758Z,17.56
2022-08-25T02:23:11.942Z,17.53
2022-08-25T02:25:42.012Z,17.49
2022-08-25T02:28:11.803Z,17.47
2022-08-25T02:30:42.891Z,17.48
2022-08-25T02:33:12.190Z,17.46
2022-08-25T02:35:45.394Z,17.42
2022-08-25T02:38:15.159Z,17.40
2022-08-25T02:40:45.119Z,17.36
2022-08-25T02:43:13.972Z,17.31
2022-08-25T02:45:42.642Z,17.25
2022-08-25T02:48:12.813Z,17.23
2022-08-25T02:50:47.419Z,17.23
2022-08-25T02:53:16.217Z,17.19
2022-08-25T02:55:45.139Z,17.14
2022-08-25T02:58:16.014Z,17.11
2022-08-25T03:00:46.303Z,17.07
2022-08-25T03:03:16.818Z,17.04
2022-08-25T03:05:47.480Z,17.04
2022-08-25T03:08:17.219Z,17.01
2022-08-25T03:10:46.411Z,17.00
2022-08-25T03:13:18.414Z,16.93
2022-08-25T03:15:47.764Z,16.84
2022-08-25T03:18:18.194Z,16.81
2022-08-25T03:20:47.294Z,16.78
2022-08-25T03:23:16.709Z,16.80
2022-08-25T03:26:04.181Z,16.84
2022-08-25T03:28:33.543Z,16.87
2022-08-25T03:31:02.463Z,16.89
2022-08-25T03:33:32.053Z,16.86
2022-08-25T03:36:00.896Z,16.87
2022-08-25T03:38:30.182Z,16.85
2022-08-25T03:40:59.268Z,16.80
2022-08-25T03:43:28.247Z,16.78
2022-08-25T03:45:59.938Z,16.75
2022-08-25T03:48:28.740Z,16.72
2022-08-25T03:50:59.037Z,16.68
2022-08-25T03:53:29.004Z,16.68
2022-08-25T03:55:59.807Z,16.69
2022-08-25T03:58:28.786Z,16.66
2022-08-25T04:01:00.633Z,16.65
2022-08-25T04:03:29.480Z,16.63
2022-08-25T04:06:03.848Z,16.66
2022-08-25T04:08:32.608Z,16.68
2022-08-25T04:11:17.804Z,16.76
2022-08-25T04:13:52.337Z,16.87
2022-08-25T04:16:24.855Z,16.96
2022-08-25T04:18:57.109Z,17.04
2022-08-25T04:21:27.987Z,17.12
2022-08-25T04:23:57.730Z,17.22
2022-08-25T04:26:34.089Z,17.29
2022-08-25T04:29:04.013Z,17.42
2022-08-25T04:31:34.527Z,17.50
2022-08-25T04:34:04.879Z,17.54
2022-08-25T04:36:57.183Z,17.67
2022-08-25T04:39:26.744Z,17.86
2022-08-25T04:41:56.546Z,18.08
2022-08-25T04:44:25.964Z,18.23
2022-08-25T04:46:56.385Z,18.42
2022-08-25T04:49:26.208Z,18.61
2022-08-25T04:51:57.119Z,18.83
2022-08-25T04:54:26.563Z,19.11
2022-08-25T04:56:59.511Z,19.37
2022-08-25T04:59:30.017Z,19.68
2022-08-25T05:02:08.897Z,19.94
2022-08-25T05:04:40.821Z,20.26
2022-08-25T05:07:10.988Z,20.51
2022-08-25T05:09:42.255Z,20.68
2022-08-25T05:12:14.247Z,20.89
2022-08-25T05:14:46.004Z,21.14
2022-08-25T05:17:18.278Z,21.39
2022-08-25T05:19:48.127Z,21.68
2022-08-25T05:22:17.304Z,21.95
2022-08-25T05:24:48.807Z,22.11
2022-08-25T05:27:17.900Z,22.39
2022-08-25T05:29:48.755Z,22.66
2022-08-25T05:32:19.139Z,22.96
2022-08-25T05:34:52.900Z,23.07
2022-08-25T05:37:29.957Z,23.39
2022-08-25T05:40:06.101Z,23.61
2022-08-25T05:42:36.529Z,24.00
2022-08-25T05:45:15.814Z,24.45
2022-08-25T05:47:55.492Z,24.74
2022-08-25T05:50:34.907Z,25.03
2022-08-25T05:53:07.136Z,25.37
2022-08-25T05:55:37.539Z,25.78
2022-08-25T05:58:10.818Z,26.01
2022-08-25T06:00:46.656Z,26.36
2022-08-25T06:03:19.467Z,26.44
2022-08-25T06:05:51.599Z,26.43
2022-08-25T06:08:22.226Z,26.90
2022-08-25T06:10:54.837Z,27.28
2022-08-25T06:13:30.507Z,27.34
2022-08-25T06:16:05.901Z,27.47
2022-08-25T06:18:38.019Z,27.74
2022-08-25T06:21:14.370Z,28.04
2022-08-25T06:23:44.972Z,28.54
2022-08-25T06:26:21.132Z,28.95
2022-08-25T06:28:56.302Z,29.43
2022-08-25T06:31:35.615Z,29.44
2022-08-25T06:34:21.946Z,29.52
2022-08-25T06:36:57.265Z,29.78
2022-08-25T10:38:57.644Z,37.59
2022-08-25T10:42:07.205Z,38.13
2022-08-25T10:45:08.067Z,37.97
2022-08-25T10:48:09.922Z,38.26
2022-08-25T10:50:55.326Z,37.99
2022-08-25T10:53:56.761Z,37.95
2022-08-25T10:56:53.202Z,38.09
2022-08-25T10:59:29.821Z,38.03
2022-08-25T11:02:30.443Z,38.07
2022-08-25T11:05:09.673Z,37.65
2022-08-25T11:07:47.758Z,36.85
2022-08-25T11:10:29.345Z,35.87
2022-08-25T11:13:04.472Z,35.05
2022-08-25T11:16:00.225Z,34.45
2022-08-25T11:18:34.083Z,33.79
2022-08-25T11:21:18.859Z,33.27
2022-08-25T11:24:13.948Z,32.94
2022-08-25T11:26:52.424Z,32.65
2022-08-25T11:29:26.269Z,32.53
2022-08-25T11:32:04.414Z,32.14
2022-08-25T11:34:43.733Z,31.79
2022-08-25T11:37:29.206Z,31.46
2022-08-25T11:40:19.652Z,31.12
2022-08-25T11:43:15.028Z,30.65
2022-08-25T11:46:10.016Z,30.41
2022-08-25T11:49:07.011Z,30.16
2022-08-25T11:51:52.604Z,29.96
2022-08-25T11:54:36.031Z,29.97
2022-08-25T11:57:15.782Z,29.95
2022-08-25T11:59:56.684Z,29.82
2022-08-25T12:02:42.561Z,29.69
2022-08-25T12:05:21.543Z,29.63
2022-08-25T12:08:17.458Z,29.58
2022-08-25T12:10:59.293Z,29.51
2022-08-25T12:13:46.709Z,29.39
2022-08-25T12:16:41.637Z,29.32
2022-08-25T12:19:38.421Z,29.28
2022-08-25T12:22:13.957Z,29.25
2022-08-25T12:25:11.847Z,29.25
2022-08-25T12:28:09.082Z,29.20
2022-08-25T12:31:02.919Z,29.14
2022-08-25T12:34:06.036Z,29.17
2022-08-25T12:36:39.315Z,29.23
2022-08-25T12:39:25.647Z,29.24
2022-08-25T12:42:03.506Z,29.24
2022-08-25T12:44:49.571Z,29.20
2022-08-25T12:47:34.371Z,29.16
2022-08-25T12:50:44.868Z,29.15
2022-08-25T12:53:43.170Z,29.15
2022-08-25T12:56:57.412Z,29.08
2022-08-25T12:59:40.279Z,28.95
2022-08-25T13:02:38.312Z,28.98
2022-08-25T13:05:42.315Z,28.94
2022-08-25T13:08:56.265Z,28.86
2022-08-25T13:11:35.418Z,28.87
2022-08-25T13:17:05.529Z,28.86
2022-08-25T13:19:36.693Z,28.80
2022-08-25T13:22:16.923Z,28.77
2022-08-25T13:24:52.792Z,28.73
2022-08-25T13:27:32.329Z,28.63
2022-08-25T13:30:05.753Z,28.59
2022-08-25T13:32:39.669Z,28.57
2022-08-25T13:35:34.722Z,28.52
2022-08-25T13:38:16.455Z,28.53
2022-08-25T13:40:50.254Z,28.49
2022-08-25T13:43:27.404Z,28.44
2022-08-25T13:45:58.553Z,28.47
2022-08-25T13:48:49.634Z,28.48
2022-08-25T13:51:31.286Z,28.56
2022-08-25T13:54:06.645Z,28.58
2022-08-25T13:56:41.452Z,28.56
2022-08-25T13:59:40.330Z,28.54
2022-08-25T14:02:15.260Z,28.55
2022-08-25T14:04:54.631Z,28.51
2022-08-25T14:07:23.487Z,28.44
2022-08-25T14:09:54.412Z,28.36
2022-08-25T14:12:44.915Z,28.35
2022-08-25T14:15:21.732Z,28.32
2022-08-25T14:18:14.515Z,28.32
2022-08-25T14:20:48.013Z,28.28
2022-08-25T14:23:31.218Z,28.25
2022-08-25T14:26:06.412Z,28.22
2022-08-25T14:28:39.609Z,28.21
2022-08-25T14:31:18.307Z,28.19
2022-08-25T14:34:02.209Z,28.18
2022-08-25T14:36:34.912Z,28.21
2022-08-25T14:39:08.910Z,28.21
2022-08-25T14:41:41.588Z,28.22
2022-08-25T14:44:11.871Z,28.22
2022-08-25T14:46:56.207Z,28.22
2022-08-25T14:49:34.445Z,28.17
2022-08-25T14:52:22.677Z,28.12
2022-08-25T14:54:53.789Z,28.10
2022-08-25T14:57:29.582Z,28.06
2022-08-25T15:00:04.981Z,28.01
2022-08-25T15:02:40.227Z,27.98
2022-08-25T15:05:23.862Z,27.96
2022-08-25T15:08:15.652Z,27.95
2022-08-25T15:10:48.039Z,27.91
2022-08-25T15:13:18.036Z,27.91
2022-08-25T15:15:53.270Z,27.89
2022-08-25T15:18:27.265Z,27.84
2022-08-25T15:21:03.651Z,27.81
2022-08-25T15:23:37.134Z,27.76
2022-08-25T15:26:19.866Z,27.75
2022-08-25T15:28:54.796Z,27.66
2022-08-25T15:31:27.230Z,27.59
2022-08-25T15:33:58.864Z,27.51
2022-08-25T15:36:30.777Z,27.45
2022-08-25T15:39:00.289Z,27.40
2022-08-25T15:41:30.215Z,27.35
2022-08-25T15:44:01.204Z,27.32
2022-08-25T15:46:34.364Z,27.28
2022-08-25T15:49:10.202Z,27.25
2022-08-25T15:51:42.599Z,27.24
2022-08-25T15:54:19.077Z,27.20
2022-08-25T15:56:48.443Z,27.14
2022-08-25T15:59:22.540Z,27.07
2022-08-25T16:02:01.359Z,27.04
2022-08-25T16:04:32.017Z,27.01
2022-08-25T16:07:03.947Z,26.92
2022-08-25T16:09:37.656Z,26.88
2022-08-25T16:12:12.110Z,26.83
2022-08-25T16:14:47.712Z,26.76
2022-08-25T16:17:21.930Z,26.70
2022-08-25T16:19:53.625Z,26.64
2022-08-25T16:22:24.075Z,26.58
2022-08-25T16:24:56.348Z,26.52
2022-08-25T16:27:38.742Z,26.47
2022-08-25T16:30:14.991Z,26.41
2022-08-25T16:32:48.156Z,26.37
2022-08-25T16:35:18.382Z,26.32
2022-08-25T16:37:52.612Z,26.27
2022-08-25T16:40:31.440Z,26.22
2022-08-25T16:43:07.435Z,26.15
2022-08-25T16:45:43.039Z,26.08
2022-08-25T16:48:20.194Z,25.99
2022-08-25T16:50:54.151Z,25.89
2022-08-25T16:53:48.741Z,25.78
2022-08-25T16:56:25.294Z,25.68
2022-08-25T16:59:04.600Z,25.61
2022-08-25T17:01:42.025Z,25.54
2022-08-25T17:04:13.903Z,25.42
2022-08-25T17:06:51.760Z,25.30
2022-08-25T17:09:25.778Z,25.14
2022-08-25T17:11:57.485Z,25.02
2022-08-25T17:14:27.920Z,24.93
2022-08-25T17:17:00.257Z,24.83
2022-08-25T17:19:38.202Z,24.68
2022-08-25T17:22:14.650Z,24.56
2022-08-25T17:24:44.389Z,24.42
2022-08-25T17:27:24.403Z,24.27
2022-08-25T17:29:56.082Z,24.14
2022-08-25T17:32:34.288Z,24.03
2022-08-25T17:35:13.582Z,23.90
2022-08-25T17:37:45.299Z,23.76
2022-08-25T17:40:22.311Z,23.65
2022-08-25T17:42:56.332Z,23.55
2022-08-25T17:45:26.710Z,23.44
2022-08-25T17:47:56.181Z,23.36
2022-08-25T17:50:29.763Z,23.25
2022-08-25T17:53:02.244Z,23.11
2022-08-25T17:55:38.092Z,23.00
2022-08-25T17:58:08.624Z,22.87
2022-08-25T18:00:43.906Z,22.72
2022-08-25T18:03:16.486Z,22.62
2022-08-25T18:05:50.709Z,22.53
2022-08-25T18:08:34.855Z,22.42
2022-08-25T18:11:08.565Z,22.32
2022-08-25T18:13:41.200Z,22.23
2022-08-25T18:16:13.837Z,22.13
2022-08-25T18:18:43.128Z,22.05
2022-08-25T18:21:20.911Z,21.97
2022-08-25T18:23:57.160Z,21.93
2022-08-25T18:26:28.002Z,21.90
2022-08-25T18:28:57.716Z,21.87
2022-08-25T18:31:29.490Z,21.86
2022-08-25T18:34:00.319Z,21.87
2022-08-25T18:36:30.853Z,21.84
2022-08-25T18:39:22.365Z,21.81
2022-08-25T18:41:54.466Z,21.76
2022-08-25T18:44:30.425Z,21.57
2022-08-25T18:47:07.333Z,21.39
2022-08-25T18:49:39.898Z,21.23
2022-08-25T18:52:10.667Z,21.09
2022-08-25T18:54:41.868Z,20.95
2022-08-25T18:57:14.604Z,20.84
2022-08-25T18:59:49.795Z,20.74
2022-08-25T19:02:23.487Z,20.65
2022-08-25T19:04:54.785Z,20.55
2022-08-25T19:07:26.914Z,20.47
2022-08-25T19:09:56.689Z,20.39
2022-08-25T19:12:27.840Z,20.34
2022-08-25T19:14:59.407Z,20.29
2022-08-25T19:17:37.452Z,20.31
2022-08-25T19:20:11.242Z,20.29
2022-08-25T19:22:42.305Z,20.26
2022-08-25T19:25:15.116Z,20.19
2022-08-25T19:27:51.502Z,20.10
2022-08-25T19:30:22.665Z,20.02
2022-08-25T19:32:54.123Z,19.83
2022-08-25T19:35:32.227Z,19.79
2022-08-25T19:38:33.203Z,19.73
2022-08-25T19:41:01.710Z,19.65
2022-08-25T19:43:33.891Z,19.54
2022-08-25T19:46:08.318Z,19.52
2022-08-25T19:48:38.432Z,19.49
2022-08-25T19:51:11.929Z,19.49
2022-08-25T19:53:40.405Z,19.36
2022-08-25T19:56:10.914Z,19.35
2022-08-25T19:58:42.262Z,19.35
2022-08-25T20:01:18.104Z,19.34
2022-08-25T20:03:50.761Z,19.32
2022-08-25T20:06:27.716Z,19.25
2022-08-25T20:09:04.441Z,19.21
2022-08-25T20:11:34.395Z,19.17
2022-08-25T20:14:04.666Z,19.15
2022-08-25T20:16:34.248Z,19.12
2022-08-25T20:19:09.296Z,18.97
2022-08-25T20:21:41.380Z,18.96
2022-08-25T20:24:30.421Z,18.86
2022-08-25T20:27:01.286Z,18.76
2022-08-25T20:29:31.461Z,18.73
2022-08-25T20:32:03.491Z,18.75
2022-08-25T20:34:36.591Z,18.71
2022-08-25T20:37:06.951Z,18.72
2022-08-25T20:39:39.471Z,18.67
2022-08-25T20:42:10.431Z,18.68
2022-08-25T20:44:42.129Z,18.64
2022-08-25T20:47:19.405Z,18.60
2022-08-25T20:49:49.201Z,18.52
2022-08-25T20:52:22.306Z,18.40
2022-08-25T20:54:52.562Z,18.33
2022-08-25T20:57:26.512Z,18.30
2022-08-25T20:59:58.382Z,18.30
2022-08-25T21:02:30.193Z,18.31
2022-08-25T21:05:01.398Z,18.34
2022-08-25T21:07:35.728Z,18.32
2022-08-25T21:10:10.685Z,18.33
2022-08-25T21:12:45.374Z,18.33
2022-08-25T21:15:18.154Z,18.33
2022-08-25T21:17:56.538Z,18.31
2022-08-25T21:20:26.526Z,18.22
2022-08-25T21:22:58.267Z,18.22
2022-08-25T21:25:28.201Z,18.18
2022-08-25T21:27:58.492Z,18.15
2022-08-25T21:30:28.503Z,18.09
2022-08-25T21:32:57.721Z,18.09
2022-08-25T21:35:30.387Z,18.07
2022-08-25T21:38:01.488Z,18.05
2022-08-25T21:40:36.945Z,17.95
2022-08-25T21:43:07.530Z,17.88
2022-08-25T21:45:46.414Z,17.88
2022-08-25T21:48:17.494Z,17.92
2022-08-25T21:50:52.493Z,17.94
2022-08-25T21:53:21.905Z,17.88
2022-08-25T21:55:50.736Z,17.86
2022-08-25T21:58:21.107Z,17.85
2022-08-25T22:00:50.815Z,17.81
2022-08-25T22:03:22.410Z,17.72
2022-08-25T22:05:52.381Z,17.78
2022-08-25T22:08:20.776Z,17.81
2022-08-25T22:10:50.507Z,17.74
2022-08-25T22:13:20.473Z,17.69
2022-08-25T22:15:52.191Z,17.57
2022-08-25T22:18:23.104Z,17.44
2022-08-25T22:20:52.731Z,17.38
2022-08-25T22:23:23.309Z,17.39
2022-08-25T22:25:58.615Z,17.35
2022-08-25T22:28:29.253Z,17.34
2022-08-25T22:31:02.957Z,17.28
2022-08-25T22:33:32.602Z,17.29
2022-08-25T22:36:01.724Z,17.30
2022-08-25T22:38:32.636Z,17.24
2022-08-25T22:41:03.016Z,17.19
2022-08-25T22:43:32.456Z,17.17
2022-08-25T22:46:04.073Z,17.16
2022-08-25T22:48:35.290Z,17.12
2022-08-25T22:51:12.941Z,17.11
2022-08-25T22:53:45.677Z,17.08
2022-08-25T22:56:17.710Z,17.06
2022-08-25T22:58:51.448Z,17.02
2022-08-25T23:01:25.064Z,17.00
2022-08-25T23:04:08.636Z,16.98
2022-08-25T23:06:43.383Z,16.89
2022-08-25T23:09:12.583Z,16.80
2022-08-25T23:11:43.776Z,16.79
2022-08-25T23:14:16.952Z,16.77
2022-08-25T23:16:45.928Z,16.74
2022-08-25T23:19:17.386Z,16.66
2022-08-25T23:22:05.205Z,16.67
2022-08-25T23:24:34.597Z,16.64
2022-08-25T23:27:05.324Z,16.65
2022-08-25T23:29:40.868Z,16.59
2022-08-25T23:32:14.341Z,16.51
2022-08-25T23:34:46.510Z,16.48
2022-08-25T23:37:18.420Z,16.37
2022-08-25T23:39:49.830Z,16.26
2022-08-25T23:42:21.017Z,16.23
2022-08-25T23:44:51.701Z,16.24
2022-08-25T23:47:21.679Z,16.23
2022-08-25T23:49:52.083Z,16.17
2022-08-25T23:52:21.269Z,16.16
2022-08-25T23:54:50.638Z,16.14
2022-08-25T23:57:19.921Z,16.16
2022-08-25T23:59:49.456Z,16.18
